createdAt,value
2018-04-13T00:00:21.559Z,0.00
2018-04-13T00:01:21.549Z,0.00
2018-04-13T00:02:21.547Z,0.00
2018-04-13T00:03:21.535Z,0.00
2018-04-13T00:04:21.536Z,0.00
2018-04-13T00:05:21.524Z,0.00
2018-04-13T00:06:21.516Z,0.00
2018-04-13T00:07:21.509Z,0.00
2018-04-13T00:08:21.507Z,0.00
2018-04-13T00:09:21.493Z,0.00
2018-04-13T00:10:21.489Z,0.00
2018-04-13T00:11:21.491Z,0.00
2018-04-13T00:12:21.478Z,0.00
2018-04-13T00:13:21.477Z,0.00
2018-04-13T00:14:21.467Z,0.00
2018-04-13T00:15:21.465Z,0.00
2018-04-13T00:16:21.462Z,0.00
2018-04-13T00:17:21.457Z,0.00
2018-04-13T00:18:21.451Z,0.00
2018-04-13T00:19:21.442Z,0.00
2018-04-13T00:20:21.436Z,0.00
2018-04-13T00:21:21.424Z,0.00
2018-04-13T00:22:21.424Z,0.00
2018-04-13T00:23:21.419Z,0.00
2018-04-13T00:24:21.417Z,0.00
2018-04-13T00:25:21.401Z,0.00
2018-04-13T00:26:21.395Z,0.00
2018-04-13T00:27:21.405Z,0.00
2018-04-13T00:28:21.380Z,0.00
2018-04-13T00:29:21.378Z,0.00
2018-04-13T00:30:21.370Z,0.00
2018-04-13T00:31:21.356Z,0.00
2018-04-13T00:32:21.359Z,0.00
2018-04-13T00:33:21.352Z,0.00
2018-04-13T00:34:21.337Z,0.00
2018-04-13T00:35:21.335Z,0.00
2018-04-13T00:36:21.346Z,0.00
2018-04-13T00:37:21.324Z,0.00
2018-04-13T00:38:21.321Z,0.00
2018-04-13T00:39:21.319Z,0.00
2018-04-13T00:40:21.311Z,0.00
2018-04-13T00:41:21.292Z,0.00
2018-04-13T00:42:21.296Z,0.00
2018-04-13T00:43:21.298Z,0.00
2018-04-13T00:44:21.273Z,0.00
2018-04-13T00:45:21.277Z,0.00
2018-04-13T00:46:21.266Z,0.00
2018-04-13T00:47:21.271Z,0.00
2018-04-13T00:48:21.265Z,0.00
2018-04-13T00:49:21.251Z,0.00
2018-04-13T00:50:21.253Z,0.00
2018-04-13T00:51:21.237Z,0.00
2018-04-13T00:52:21.235Z,0.00
2018-04-13T00:53:21.230Z,0.00
2018-04-13T00:54:21.222Z,0.00
2018-04-13T00:55:21.217Z,0.00
2018-04-13T00:56:21.212Z,0.00
2018-04-13T00:57:21.203Z,0.00
2018-04-13T00:58:21.205Z,0.00
2018-04-13T00:59:21.177Z,0.00
2018-04-13T01:00:21.181Z,0.00
2018-04-13T01:01:21.160Z,0.00
2018-04-13T01:02:21.164Z,0.00
2018-04-13T01:03:21.160Z,0.00
2018-04-13T01:04:21.156Z,0.00
2018-04-13T01:05:21.191Z,0.00
2018-04-13T01:06:21.142Z,0.00
2018-04-13T01:07:21.141Z,0.00
2018-04-13T01:08:21.140Z,0.00
2018-04-13T01:09:21.123Z,0.00
2018-04-13T01:10:21.118Z,0.00
2018-04-13T01:11:21.101Z,0.00
2018-04-13T01:12:21.118Z,0.00
2018-04-13T01:13:21.100Z,0.00
2018-04-13T01:14:21.082Z,0.00
2018-04-13T01:15:21.087Z,0.00
2018-04-13T01:16:21.076Z,0.00
2018-04-13T01:17:21.068Z,0.00
2018-04-13T01:18:21.066Z,0.00
2018-04-13T01:19:21.057Z,0.00
2018-04-13T01:20:21.049Z,0.00
2018-04-13T01:21:21.045Z,0.00
2018-04-13T01:22:21.049Z,0.00
2018-04-13T01:23:21.036Z,0.00
2018-04-13T01:24:21.024Z,0.00
2018-04-13T01:25:21.016Z,0.00
2018-04-13T01:26:21.014Z,0.00
2018-04-13T01:27:21.015Z,0.00
2018-04-13T01:28:21.003Z,0.00
2018-04-13T01:29:21.002Z,0.00
2018-04-13T02:01:44.497Z,0.00
2018-04-13T02:02:44.460Z,0.00
2018-04-13T02:04:37.426Z,0.00
2018-04-13T02:05:37.394Z,0.00
2018-04-13T02:07:30.366Z,0.00
2018-04-13T02:08:30.344Z,0.00
2018-04-13T02:10:23.270Z,0.00
2018-04-13T02:11:23.285Z,0.00
2018-04-13T02:13:16.205Z,0.00
2018-04-13T02:14:16.188Z,0.00
2018-04-13T02:16:09.241Z,0.00
2018-04-13T02:17:09.197Z,0.00
2018-04-13T02:19:02.136Z,0.00
2018-04-13T02:20:02.107Z,0.00
2018-04-13T02:21:55.056Z,0.00
2018-04-13T02:22:55.036Z,0.00
2018-04-13T02:24:47.996Z,0.00
2018-04-13T02:25:47.953Z,0.00
2018-04-13T02:27:40.936Z,0.00
2018-04-13T02:28:40.913Z,0.00
2018-04-13T02:30:33.865Z,0.00
2018-04-13T02:31:33.815Z,0.00
2018-04-13T02:32:33.817Z,0.00
2018-04-13T02:33:33.804Z,0.00
2018-04-13T02:34:33.914Z,0.00
2018-04-13T02:35:33.785Z,0.00
2018-04-13T02:36:33.780Z,0.00
2018-04-13T02:37:33.777Z,0.00
2018-04-13T02:38:33.765Z,0.00
2018-04-13T02:39:33.758Z,0.00
2018-04-13T02:40:33.751Z,0.00
2018-04-13T02:41:33.741Z,0.00
2018-04-13T02:42:33.732Z,0.00
2018-04-13T02:43:33.726Z,0.00
2018-04-13T02:44:33.728Z,0.00
2018-04-13T02:45:33.724Z,0.00
2018-04-13T02:46:33.716Z,0.00
2018-04-13T02:47:33.721Z,0.00
2018-04-13T02:48:33.692Z,0.00
2018-04-13T02:49:33.681Z,0.00
2018-04-13T02:50:33.682Z,0.00
2018-04-13T02:51:33.671Z,0.00
2018-04-13T02:52:33.659Z,0.00
2018-04-13T02:53:33.674Z,0.00
2018-04-13T02:54:33.656Z,0.00
2018-04-13T02:55:33.645Z,0.00
2018-04-13T02:56:33.651Z,0.00
2018-04-13T02:57:33.630Z,0.00
2018-04-13T02:58:33.622Z,0.00
2018-04-13T02:59:33.627Z,0.00
2018-04-13T03:00:33.613Z,0.00
2018-04-13T03:01:33.595Z,0.00
2018-04-13T03:02:33.602Z,0.00
2018-04-13T03:03:33.585Z,0.00
2018-04-13T03:04:33.580Z,0.00
2018-04-13T03:05:33.579Z,0.00
2018-04-13T03:06:33.562Z,0.00
2018-04-13T03:07:33.594Z,0.00
2018-04-13T03:08:33.552Z,0.00
2018-04-13T03:09:33.543Z,0.00
2018-04-13T03:10:33.538Z,0.00
2018-04-13T03:11:33.549Z,0.00
2018-04-13T03:12:33.554Z,0.00
2018-04-13T03:13:33.532Z,0.00
2018-04-13T03:14:33.515Z,0.00
2018-04-13T03:15:33.509Z,0.00
2018-04-13T03:16:33.499Z,0.00
2018-04-13T03:17:33.491Z,0.00
2018-04-13T03:18:33.495Z,0.00
2018-04-13T03:19:33.478Z,0.00
2018-04-13T03:20:33.468Z,0.00
2018-04-13T03:21:33.459Z,0.00
2018-04-13T03:22:33.458Z,0.00
2018-04-13T03:23:33.445Z,0.00
2018-04-13T03:24:33.479Z,0.00
2018-04-13T03:25:33.447Z,0.00
2018-04-13T03:26:33.426Z,0.00
2018-04-13T03:27:33.431Z,0.00
2018-04-13T03:28:33.419Z,0.00
2018-04-13T03:29:33.410Z,0.00
2018-04-13T03:30:33.411Z,0.00
2018-04-13T03:31:33.424Z,0.00
2018-04-13T03:32:33.398Z,0.00
2018-04-13T03:33:33.385Z,0.00
2018-04-13T03:34:33.388Z,0.00
2018-04-13T03:35:33.371Z,0.00
2018-04-13T03:36:33.366Z,0.00
2018-04-13T03:37:33.365Z,0.00
2018-04-13T03:38:33.356Z,0.00
2018-04-13T03:39:33.352Z,0.00
2018-04-13T03:40:33.344Z,0.00
2018-04-13T03:41:33.342Z,0.00
2018-04-13T03:42:33.333Z,0.00
2018-04-13T03:43:33.337Z,0.00
2018-04-13T03:44:33.316Z,0.00
2018-04-13T03:45:33.308Z,0.00
2018-04-13T03:46:33.303Z,0.00
2018-04-13T03:47:33.297Z,0.00
2018-04-13T03:48:33.298Z,0.00
2018-04-13T03:49:33.292Z,0.00
2018-04-13T03:50:33.284Z,0.00
2018-04-13T03:51:33.281Z,0.00
2018-04-13T03:52:33.308Z,0.00
2018-04-13T03:53:33.326Z,0.00
2018-04-13T03:54:33.921Z,0.00
2018-04-13T03:55:33.329Z,0.00
2018-04-13T03:56:33.242Z,0.00
2018-04-13T03:57:33.247Z,0.00
2018-04-13T03:58:33.238Z,0.00
2018-04-13T03:59:33.221Z,0.00
2018-04-13T04:00:33.223Z,0.00
2018-04-13T04:01:33.217Z,0.00
2018-04-13T04:02:33.214Z,0.00
2018-04-13T04:03:33.208Z,0.00
2018-04-13T04:04:33.201Z,0.00
2018-04-13T04:05:33.197Z,0.00
2018-04-13T04:06:33.192Z,0.00
2018-04-13T04:07:33.189Z,0.00
2018-04-13T04:08:33.181Z,0.00
2018-04-13T04:09:33.168Z,0.00
2018-04-13T04:10:33.163Z,0.00
2018-04-13T04:11:33.171Z,0.00
2018-04-13T04:12:33.157Z,4.00
2018-04-13T04:13:33.155Z,4.00
2018-04-13T04:14:33.147Z,0.00
2018-04-13T04:15:33.135Z,4.00
2018-04-13T04:16:33.188Z,4.00
2018-04-13T04:17:33.132Z,4.00
2018-04-13T04:18:33.123Z,4.00
2018-04-13T04:19:33.124Z,8.00
2018-04-13T04:20:33.114Z,12.00
2018-04-13T04:21:33.112Z,12.00
2018-04-13T04:22:33.099Z,16.00
2018-04-13T04:23:33.098Z,16.00
2018-04-13T04:24:33.106Z,20.00
2018-04-13T04:25:33.077Z,24.00
2018-04-13T04:26:33.071Z,24.00
2018-04-13T04:27:33.084Z,32.00
2018-04-13T04:28:33.063Z,36.00
2018-04-13T04:29:33.051Z,36.00
2018-04-13T04:30:33.056Z,44.00
2018-04-13T04:31:33.048Z,48.00
2018-04-13T04:32:33.037Z,56.00
2018-04-13T04:33:33.036Z,64.00
2018-04-13T04:34:33.073Z,72.00
2018-04-13T04:35:33.029Z,84.00
2018-04-13T04:36:33.024Z,92.00
2018-04-13T04:37:33.022Z,104.00
2018-04-13T04:38:33.014Z,116.00
2018-04-13T04:39:33.008Z,132.00
2018-04-13T04:40:33.000Z,148.00
2018-04-13T04:41:32.988Z,164.00
2018-04-13T04:42:32.992Z,180.00
2018-04-13T04:43:32.985Z,196.00
2018-04-13T04:44:32.975Z,208.00
2018-04-13T04:45:33.002Z,224.00
2018-04-13T04:46:32.974Z,240.00
2018-04-13T04:47:32.969Z,260.00
2018-04-13T04:48:32.957Z,276.00
2018-04-13T04:49:32.947Z,292.00
2018-04-13T04:50:32.942Z,316.00
2018-04-13T04:51:32.937Z,340.00
2018-04-13T04:52:32.943Z,368.00
2018-04-13T04:53:32.930Z,400.00
2018-04-13T04:54:32.927Z,436.00
2018-04-13T04:55:32.912Z,476.00
2018-04-13T04:56:32.922Z,516.00
2018-04-13T04:57:32.913Z,564.00
2018-04-13T04:58:32.901Z,612.00
2018-04-13T04:59:32.911Z,668.00
2018-04-13T05:00:32.895Z,732.00
2018-04-13T05:01:32.878Z,796.00
2018-04-13T05:02:32.881Z,864.00
2018-04-13T05:03:32.880Z,932.00
2018-04-13T05:04:32.866Z,1000.00
2018-04-13T05:05:32.883Z,1064.00
2018-04-13T05:06:32.859Z,1132.00
2018-04-13T05:07:32.857Z,1192.00
2018-04-13T05:08:32.847Z,1248.00
2018-04-13T05:09:32.937Z,1304.00
2018-04-13T05:10:32.839Z,1360.00
2018-04-13T05:11:32.828Z,1412.00
2018-04-13T05:12:32.836Z,1468.00
2018-04-13T05:13:32.849Z,1532.00
2018-04-13T05:14:32.818Z,1576.00
2018-04-13T05:15:32.813Z,1608.00
2018-04-13T05:16:32.805Z,1648.00
2018-04-13T05:17:32.802Z,1696.00
2018-04-13T05:18:32.787Z,1756.00
2018-04-13T05:19:32.789Z,1836.00
2018-04-13T05:20:32.785Z,1940.00
2018-04-13T05:21:32.798Z,2052.00
2018-04-13T05:22:32.841Z,2180.00
2018-04-13T05:23:32.768Z,2316.00
2018-04-13T05:24:32.767Z,2452.00
2018-04-13T05:25:32.757Z,2576.00
2018-04-13T05:26:32.760Z,2692.00
2018-04-13T05:27:32.743Z,2796.00
2018-04-13T05:28:32.745Z,2876.00
2018-04-13T05:29:32.761Z,2932.00
2018-04-13T05:30:32.737Z,2968.00
2018-04-13T05:31:32.727Z,2964.00
2018-04-13T05:32:32.727Z,2944.00
2018-04-13T05:33:32.728Z,2904.00
2018-04-13T05:34:32.723Z,2840.00
2018-04-13T05:35:32.720Z,2784.00
2018-04-13T05:36:32.700Z,2736.00
2018-04-13T05:37:32.705Z,2704.00
2018-04-13T05:38:32.699Z,2704.00
2018-04-13T05:39:32.710Z,2732.00
2018-04-13T05:40:32.683Z,2788.00
2018-04-13T05:41:32.682Z,2860.00
2018-04-13T05:42:32.672Z,2948.00
2018-04-13T05:43:32.686Z,3036.00
2018-04-13T05:44:32.665Z,3136.00
2018-04-13T05:45:32.656Z,3224.00
2018-04-13T05:46:32.658Z,3296.00
2018-04-13T05:47:32.656Z,3344.00
2018-04-13T05:48:32.656Z,3368.00
2018-04-13T05:49:32.638Z,3368.00
2018-04-13T05:50:32.635Z,3368.00
2018-04-13T05:51:32.629Z,3356.00
2018-04-13T05:52:32.629Z,3332.00
2018-04-13T05:53:32.623Z,3324.00
2018-04-13T05:54:32.625Z,3324.00
2018-04-13T05:55:32.611Z,3348.00
2018-04-13T05:56:32.614Z,3400.00
2018-04-13T05:57:32.603Z,3484.00
2018-04-13T05:58:32.595Z,3600.00
2018-04-13T05:59:32.609Z,3752.00
2018-04-13T06:00:32.588Z,3940.00
2018-04-13T06:01:32.592Z,4132.00
2018-04-13T06:02:32.579Z,4324.00
2018-04-13T06:03:32.583Z,4508.00
2018-04-13T06:04:32.560Z,4668.00
2018-04-13T06:05:32.565Z,4796.00
2018-04-13T06:06:32.564Z,4888.00
2018-04-13T06:07:32.559Z,4948.00
2018-04-13T06:08:32.548Z,4972.00
2018-04-13T06:09:32.537Z,4972.00
2018-04-13T06:10:32.541Z,4916.00
2018-04-13T06:11:32.542Z,4840.00
2018-04-13T06:12:32.535Z,4744.00
2018-04-13T06:13:32.575Z,4636.00
2018-04-13T06:14:32.517Z,4516.00
2018-04-13T06:15:32.524Z,4416.00
2018-04-13T06:16:32.508Z,4332.00
2018-04-13T06:17:32.515Z,4268.00
2018-04-13T06:18:32.509Z,4232.00
2018-04-13T06:19:32.496Z,4248.00
2018-04-13T06:20:32.544Z,4328.00
2018-04-13T06:21:32.490Z,4448.00
2018-04-13T06:22:32.488Z,4632.00
2018-04-13T06:23:32.485Z,4880.00
2018-04-13T06:24:32.555Z,5184.00
2018-04-13T06:25:32.474Z,5532.00
2018-04-13T06:26:32.471Z,5928.00
2018-04-13T06:27:32.465Z,6364.00
2018-04-13T06:28:32.459Z,6828.00
2018-04-13T06:29:32.490Z,7300.00
2018-04-13T06:30:32.449Z,7760.00
2018-04-13T06:31:32.447Z,8196.00
2018-04-13T06:32:32.444Z,8592.00
2018-04-13T06:33:32.459Z,8932.00
2018-04-13T06:34:32.434Z,9228.00
2018-04-13T06:35:32.441Z,9488.00
2018-04-13T06:36:32.434Z,9720.00
2018-04-13T06:37:32.426Z,9908.00
2018-04-13T06:38:32.429Z,10036.00
2018-04-13T06:39:32.408Z,10136.00
2018-04-13T06:40:32.424Z,10208.00
2018-04-13T06:41:32.413Z,10276.00
2018-04-13T06:42:32.406Z,10372.00
2018-04-13T06:43:32.401Z,10488.00
2018-04-13T06:44:32.402Z,10716.00
2018-04-13T06:45:32.391Z,11032.00
2018-04-13T06:46:32.405Z,11372.00
2018-04-13T06:47:32.387Z,11728.00
2018-04-13T06:48:32.392Z,12016.00
2018-04-13T06:49:32.384Z,12296.00
2018-04-13T06:50:32.378Z,12676.00
2018-04-13T06:51:32.428Z,13164.00
2018-04-13T06:52:32.387Z,13656.00
2018-04-13T06:53:32.361Z,14116.00
2018-04-13T06:54:32.381Z,14520.00
2018-04-13T06:55:32.386Z,14944.00
2018-04-13T06:56:32.365Z,15348.00
2018-04-13T06:57:32.358Z,15656.00
2018-04-13T06:58:32.363Z,15740.00
2018-04-13T06:59:32.347Z,15700.00
2018-04-13T07:00:32.357Z,15560.00
2018-04-13T07:01:32.350Z,15384.00
2018-04-13T07:02:32.385Z,15152.00
2018-04-13T07:03:32.348Z,14860.00
2018-04-13T07:04:32.334Z,14524.00
2018-04-13T07:05:32.343Z,14192.00
2018-04-13T07:06:32.334Z,13900.00
2018-04-13T07:07:32.338Z,13628.00
2018-04-13T07:08:32.338Z,13328.00
2018-04-13T07:09:32.327Z,13036.00
2018-04-13T07:10:32.331Z,12848.00
2018-04-13T07:11:32.322Z,12796.00
2018-04-13T07:12:32.330Z,12868.00
2018-04-13T07:13:32.324Z,13036.00
2018-04-13T07:14:32.324Z,13272.00
2018-04-13T07:15:32.324Z,13712.00
2018-04-13T07:16:32.316Z,14264.00
2018-04-13T07:17:32.317Z,14876.00
2018-04-13T07:18:32.311Z,15548.00
2018-04-13T07:19:32.301Z,16128.00
2018-04-13T07:20:32.311Z,16640.00
2018-04-13T07:21:32.300Z,17184.00
2018-04-13T07:22:32.290Z,17728.00
2018-04-13T07:23:32.296Z,18080.00
2018-04-13T07:24:32.286Z,18336.00
2018-04-13T07:25:32.295Z,18752.00
2018-04-13T07:26:32.294Z,19360.00
2018-04-13T07:27:32.287Z,20000.00
2018-04-13T07:28:32.291Z,24160.00
2018-04-13T07:29:32.290Z,31072.00
2018-04-13T07:30:32.306Z,33824.00
2018-04-13T07:31:32.285Z,35552.00
2018-04-13T07:32:32.286Z,35328.00
2018-04-13T07:33:32.289Z,35456.00
2018-04-13T07:34:32.301Z,36832.00
2018-04-13T07:35:32.298Z,37312.00
2018-04-13T07:36:32.282Z,37440.00
2018-04-13T07:37:32.302Z,37728.00
2018-04-13T07:38:32.414Z,37600.00
2018-04-13T07:39:32.314Z,38240.00
2018-04-13T07:40:32.309Z,38880.00
2018-04-13T07:41:32.315Z,39328.00
2018-04-13T07:42:32.325Z,39488.00
2018-04-13T07:43:32.339Z,38496.00
2018-04-13T07:44:32.336Z,38048.00
2018-04-13T07:45:32.350Z,36128.00
2018-04-13T07:46:32.459Z,35040.00
2018-04-13T07:47:32.363Z,37600.00
2018-04-13T07:48:32.387Z,37024.00
2018-04-13T07:49:32.386Z,33344.00
2018-04-13T07:50:32.391Z,39168.00
2018-04-13T07:51:32.403Z,38016.00
2018-04-13T07:52:32.413Z,37760.00
2018-04-13T07:53:32.424Z,37536.00
2018-04-13T07:54:32.423Z,39904.00
2018-04-13T07:55:32.444Z,39808.00
2018-04-13T07:56:32.449Z,38944.00
2018-04-13T07:57:32.460Z,41056.00
2018-04-13T07:58:32.987Z,40096.00
2018-04-13T07:59:32.484Z,40192.00
2018-04-13T08:00:32.499Z,40992.00
2018-04-13T08:01:32.511Z,39744.00
2018-04-13T08:02:32.512Z,38880.00
2018-04-13T08:03:32.528Z,40672.00
2018-04-13T08:04:32.537Z,40032.00
2018-04-13T08:05:32.564Z,38304.00
2018-04-13T08:06:32.561Z,41312.00
2018-04-13T08:07:32.572Z,45344.00
2018-04-13T08:08:32.594Z,46912.00
2018-04-13T08:09:32.596Z,46272.00
2018-04-13T08:10:32.607Z,45664.00
2018-04-13T08:11:32.633Z,44224.00
2018-04-13T08:12:32.651Z,44864.00
2018-04-13T08:13:32.639Z,44352.00
2018-04-13T08:14:32.643Z,45920.00
2018-04-13T08:15:32.672Z,48896.00
2018-04-13T08:16:32.676Z,47904.00
2018-04-13T08:17:32.688Z,47136.00
2018-04-13T08:18:32.701Z,47328.00
2018-04-13T08:19:32.709Z,46080.00
2018-04-13T08:20:32.726Z,46112.00
2018-04-13T08:21:32.738Z,47136.00
2018-04-13T08:22:32.752Z,48608.00
2018-04-13T08:23:32.800Z,48064.00
2018-04-13T08:24:32.782Z,47520.00
2018-04-13T08:25:32.790Z,48576.00
2018-04-13T08:26:32.799Z,49408.00
2018-04-13T08:27:32.815Z,48672.00
2018-04-13T08:28:32.827Z,52768.00
2018-04-13T08:29:32.834Z,52672.00
2018-04-13T08:30:32.858Z,46688.00
2018-04-13T08:31:32.884Z,48544.00
2018-04-13T08:32:32.887Z,52608.00
2018-04-13T08:33:32.897Z,52576.00
2018-04-13T08:34:32.899Z,53824.00
2018-04-13T08:35:32.971Z,56672.00
2018-04-13T08:36:32.939Z,58528.00
2018-04-13T08:37:32.948Z,61376.00
2018-04-13T08:38:32.970Z,59232.00
2018-04-13T08:39:32.973Z,57920.00
2018-04-13T08:40:32.999Z,56352.00
2018-04-13T08:41:33.001Z,55904.00
2018-04-13T08:42:33.025Z,58080.00
2018-04-13T08:43:33.100Z,60480.00
2018-04-13T08:44:33.047Z,62528.00
2018-04-13T08:45:33.079Z,63392.00
2018-04-13T08:46:33.078Z,67456.00
2018-04-13T08:47:33.099Z,69024.00
2018-04-13T08:48:33.140Z,68800.00
2018-04-13T08:49:33.124Z,68256.00
2018-04-13T08:50:33.135Z,64800.00
2018-04-13T08:51:33.173Z,63168.00
2018-04-13T08:52:33.162Z,66016.00
2018-04-13T08:53:33.178Z,68416.00
2018-04-13T08:54:33.183Z,70112.00
2018-04-13T08:55:33.206Z,67264.00
2018-04-13T08:56:33.227Z,69568.00
2018-04-13T08:57:33.241Z,70464.00
2018-04-13T08:58:33.255Z,71488.00
2018-04-13T08:59:33.276Z,76768.00
2018-04-13T09:00:33.285Z,75456.00
2018-04-13T09:01:33.292Z,78624.00
2018-04-13T09:02:33.309Z,77952.00
2018-04-13T09:03:33.328Z,76608.00
2018-04-13T09:04:33.351Z,76640.00
2018-04-13T09:05:33.353Z,77024.00
2018-04-13T09:06:33.394Z,79168.00
2018-04-13T09:07:33.387Z,79296.00
2018-04-13T09:08:33.392Z,80064.00
2018-04-13T09:09:33.419Z,80896.00
2018-04-13T09:10:33.452Z,82176.00
2018-04-13T09:11:33.430Z,81600.00
2018-04-13T09:12:33.456Z,79744.00
2018-04-13T09:13:33.466Z,83808.00
2018-04-13T09:14:33.498Z,86592.00
2018-04-13T09:15:33.505Z,86496.00
2018-04-13T09:16:33.527Z,85440.00
2018-04-13T09:17:33.535Z,84864.00
2018-04-13T09:18:33.560Z,88480.00
2018-04-13T09:19:33.552Z,89472.00
2018-04-13T09:20:33.583Z,89920.00
2018-04-13T09:21:33.595Z,89344.00
2018-04-13T09:22:33.668Z,90528.00
2018-04-13T09:23:33.619Z,92512.00
2018-04-13T09:24:33.721Z,95392.00
2018-04-13T09:25:33.656Z,91936.00
2018-04-13T09:26:33.676Z,87680.00
2018-04-13T09:27:33.716Z,88352.00
2018-04-13T09:28:33.698Z,90048.00
2018-04-13T09:29:33.714Z,90976.00
2018-04-13T09:30:33.760Z,92352.00
2018-04-13T09:31:33.750Z,92928.00
2018-04-13T09:32:33.768Z,92160.00
2018-04-13T09:33:33.792Z,93920.00
2018-04-13T09:34:33.794Z,97056.00
2018-04-13T09:35:33.816Z,97664.00
2018-04-13T09:36:33.843Z,95840.00
2018-04-13T09:37:33.846Z,95456.00
2018-04-13T09:38:33.867Z,96288.00
2018-04-13T09:39:33.871Z,92320.00
2018-04-13T09:40:33.895Z,89280.00
2018-04-13T09:41:33.915Z,88480.00
2018-04-13T09:42:33.939Z,92864.00
2018-04-13T09:43:33.944Z,95456.00
2018-04-13T09:44:33.953Z,91392.00
2018-04-13T09:45:33.993Z,91872.00
2018-04-13T09:46:34.001Z,88896.00
2018-04-13T09:47:34.019Z,90624.00
2018-04-13T09:48:34.046Z,91168.00
2018-04-13T09:49:34.050Z,91008.00
2018-04-13T09:50:34.071Z,89856.00
2018-04-13T09:51:34.085Z,88704.00
2018-04-13T09:52:34.099Z,87808.00
2018-04-13T09:53:34.125Z,84544.00
2018-04-13T09:54:34.131Z,80512.00
2018-04-13T09:55:34.151Z,80544.00
2018-04-13T09:56:34.171Z,83584.00
2018-04-13T09:57:34.191Z,87872.00
2018-04-13T09:58:34.206Z,86336.00
2018-04-13T09:59:34.231Z,90144.00
2018-04-13T10:00:34.271Z,91456.00
2018-04-13T10:01:34.273Z,90944.00
2018-04-13T10:02:34.286Z,89824.00
2018-04-13T10:03:34.289Z,86336.00
2018-04-13T10:04:34.315Z,88928.00
2018-04-13T10:05:34.356Z,89280.00
2018-04-13T10:06:34.360Z,29760.00
2018-04-13T10:07:34.365Z,62432.00
2018-04-13T10:08:34.385Z,37984.00
2018-04-13T10:09:34.428Z,83136.00
2018-04-13T10:10:34.443Z,59456.00
2018-04-13T10:11:34.446Z,63616.00
2018-04-13T10:12:34.469Z,66464.00
2018-04-13T10:13:34.465Z,36096.00
2018-04-13T10:14:34.507Z,48256.00
2018-04-13T10:15:34.525Z,79744.00
2018-04-13T10:16:34.529Z,76672.00
2018-04-13T10:17:34.542Z,82816.00
2018-04-13T10:18:34.561Z,83360.00
2018-04-13T10:19:34.581Z,80832.00
2018-04-13T10:20:34.595Z,24576.00
2018-04-13T10:21:34.608Z,80160.00
2018-04-13T10:22:34.626Z,76576.00
2018-04-13T10:23:34.645Z,72608.00
2018-04-13T10:24:34.741Z,36384.00
2018-04-13T10:25:34.669Z,72128.00
2018-04-13T10:26:34.699Z,75552.00
2018-04-13T10:27:34.710Z,84192.00
2018-04-13T10:28:34.740Z,20544.00
2018-04-13T10:29:34.762Z,77504.00
2018-04-13T10:30:34.762Z,90368.00
2018-04-13T10:31:34.771Z,87744.00
2018-04-13T10:32:34.792Z,79360.00
2018-04-13T10:33:34.807Z,91360.00
2018-04-13T10:34:34.838Z,91904.00
2018-04-13T10:35:34.844Z,91488.00
2018-04-13T10:36:34.868Z,87328.00
2018-04-13T10:37:34.890Z,24032.00
2018-04-13T10:38:34.927Z,84096.00
2018-04-13T10:39:34.895Z,84512.00
2018-04-13T10:40:34.929Z,87360.00
2018-04-13T10:41:34.946Z,90848.00
2018-04-13T10:42:34.954Z,93216.00
2018-04-13T10:43:34.981Z,92480.00
2018-04-13T10:44:35.004Z,90560.00
2018-04-13T10:45:35.023Z,63712.00
2018-04-13T10:46:35.029Z,93760.00
2018-04-13T10:47:35.045Z,93376.00
2018-04-13T10:48:35.067Z,93280.00
2018-04-13T10:49:35.086Z,95680.00
2018-04-13T10:50:35.106Z,93376.00
2018-04-13T10:51:35.127Z,92224.00
2018-04-13T10:52:35.140Z,88704.00
2018-04-13T10:53:35.167Z,89696.00
2018-04-13T10:54:35.176Z,91328.00
2018-04-13T10:55:35.208Z,88768.00
2018-04-13T10:56:35.216Z,88672.00
2018-04-13T10:57:35.235Z,90944.00
2018-04-13T10:58:35.254Z,90912.00
2018-04-13T10:59:35.267Z,91904.00
2018-04-13T11:00:35.292Z,96064.00
2018-04-13T11:01:35.309Z,96640.00
2018-04-13T11:02:35.333Z,95008.00
2018-04-13T11:03:35.351Z,96000.00
2018-04-13T11:04:35.384Z,95872.00
2018-04-13T11:05:35.388Z,95392.00
2018-04-13T11:06:35.412Z,99712.00
2018-04-13T11:07:35.429Z,99520.00
2018-04-13T11:08:35.438Z,99840.00
2018-04-13T11:09:35.459Z,98336.00
2018-04-13T11:10:35.468Z,96096.00
2018-04-13T11:11:35.504Z,97696.00
2018-04-13T11:12:35.526Z,101344.00
2018-04-13T11:13:35.542Z,100544.00
2018-04-13T11:14:35.546Z,100448.00
2018-04-13T11:15:35.576Z,100000.00
2018-04-13T11:16:35.607Z,96544.00
2018-04-13T11:17:35.607Z,94496.00
2018-04-13T11:18:35.633Z,97568.00
2018-04-13T11:19:35.647Z,105632.00
2018-04-13T11:20:35.669Z,106912.00
2018-04-13T11:21:35.690Z,106208.00
2018-04-13T11:22:35.712Z,105600.00
2018-04-13T11:23:35.728Z,103552.00
2018-04-13T11:24:35.742Z,114240.00
2018-04-13T11:25:35.768Z,73856.00
2018-04-13T11:26:35.782Z,108096.00
2018-04-13T11:27:35.795Z,87456.00
2018-04-13T11:28:35.815Z,68704.00
2018-04-13T11:29:35.836Z,94144.00
2018-04-13T11:30:35.853Z,102112.00
2018-04-13T11:31:35.894Z,105312.00
2018-04-13T11:32:35.905Z,109568.00
2018-04-13T11:33:35.969Z,110176.00
2018-04-13T11:34:35.928Z,75328.00
2018-04-13T11:35:35.962Z,73792.00
2018-04-13T11:36:35.970Z,109280.00
2018-04-13T11:37:36.003Z,118176.00
2018-04-13T11:38:36.004Z,116352.00
2018-04-13T11:39:36.029Z,113600.00
2018-04-13T11:40:36.048Z,104224.00
2018-04-13T11:41:36.075Z,113888.00
2018-04-13T11:42:36.077Z,91616.00
2018-04-13T11:43:36.090Z,77760.00
2018-04-13T11:44:36.115Z,111072.00
2018-04-13T11:45:36.125Z,116576.00
2018-04-13T11:46:36.151Z,117600.00
2018-04-13T11:47:36.173Z,118720.00
2018-04-13T11:48:36.183Z,31936.00
2018-04-13T11:49:36.201Z,115072.00
2018-04-13T11:50:36.227Z,118944.00
2018-04-13T11:51:36.233Z,118112.00
2018-04-13T11:52:36.255Z,118368.00
2018-04-13T11:53:36.262Z,119200.00
2018-04-13T11:54:36.288Z,118400.00
2018-04-13T11:55:36.310Z,119200.00
2018-04-13T11:56:36.321Z,118784.00
2018-04-13T11:57:36.341Z,114848.00
2018-04-13T11:58:36.371Z,104928.00
2018-04-13T11:59:36.381Z,99360.00
2018-04-13T12:00:36.406Z,98336.00
2018-04-13T12:01:36.414Z,40640.00
2018-04-13T12:02:36.429Z,107104.00
2018-04-13T12:03:36.457Z,110912.00
2018-04-13T12:04:36.473Z,117280.00
2018-04-13T12:05:36.493Z,122528.00
2018-04-13T12:06:36.509Z,120480.00
2018-04-13T12:07:36.532Z,117568.00
2018-04-13T12:08:36.555Z,119360.00
2018-04-13T12:09:36.578Z,122784.00
2018-04-13T12:10:36.584Z,124032.00
2018-04-13T12:11:36.599Z,124480.00
2018-04-13T12:12:36.635Z,121792.00
2018-04-13T12:13:36.666Z,118528.00
2018-04-13T12:14:36.676Z,114688.00
2018-04-13T12:15:36.698Z,110016.00
2018-04-13T12:16:36.714Z,107968.00
2018-04-13T12:17:36.738Z,104032.00
2018-04-13T12:18:36.750Z,103904.00
2018-04-13T12:19:36.770Z,103264.00
2018-04-13T12:20:36.794Z,103008.00
2018-04-13T12:21:36.805Z,100640.00
2018-04-13T12:22:36.837Z,99488.00
2018-04-13T12:23:36.851Z,93728.00
2018-04-13T12:24:36.916Z,49728.00
2018-04-13T12:25:36.906Z,19424.00
2018-04-13T12:26:36.908Z,18208.00
2018-04-13T12:27:36.930Z,17284.00
2018-04-13T12:28:36.937Z,16524.00
2018-04-13T12:29:36.954Z,15816.00
2018-04-13T12:30:36.986Z,15256.00
2018-04-13T12:31:36.996Z,15272.00
2018-04-13T12:32:36.995Z,14952.00
2018-04-13T12:33:37.013Z,14504.00
2018-04-13T12:34:37.039Z,14656.00
2018-04-13T12:35:37.040Z,14544.00
2018-04-13T12:36:37.050Z,14508.00
2018-04-13T12:37:37.058Z,14904.00
2018-04-13T12:38:37.070Z,17536.00
2018-04-13T12:39:37.099Z,19488.00
2018-04-13T12:40:37.104Z,19968.00
2018-04-13T12:41:37.107Z,20864.00
2018-04-13T12:42:37.105Z,20480.00
2018-04-13T12:43:37.125Z,19808.00
2018-04-13T12:44:37.125Z,20320.00
2018-04-13T12:45:37.142Z,21088.00
2018-04-13T12:46:37.146Z,21024.00
2018-04-13T12:47:37.162Z,19712.00
2018-04-13T12:48:37.156Z,18784.00
2018-04-13T12:49:37.182Z,18656.00
2018-04-13T12:50:37.184Z,18688.00
2018-04-13T12:51:37.199Z,19552.00
2018-04-13T12:52:37.242Z,20384.00
2018-04-13T12:53:37.288Z,20672.00
2018-04-13T12:54:37.421Z,20992.00